createdAt,value
2022-12-05T00:12:38.242Z,28.80
2022-12-05T00:19:26.514Z,27.98
2022-12-05T00:26:12.349Z,27.88
2022-12-05T00:32:58.089Z,30.97
2022-12-05T00:39:46.620Z,29.95
2022-12-05T00:46:35.119Z,28.88
2022-12-05T00:53:21.103Z,27.58
2022-12-05T01:00:11.469Z,28.70
2022-12-05T01:07:00.052Z,29.30
2022-12-05T01:13:46.284Z,27.45
2022-12-05T01:20:34.337Z,28.73
2022-12-05T01:27:19.907Z,26.08
2022-12-05T01:34:08.597Z,29.00
2022-12-05T01:41:05.005Z,29.55
2022-12-05T01:47:50.832Z,25.27
2022-12-05T01:54:38.837Z,27.48
2022-12-05T02:01:26.967Z,31.67
2022-12-05T02:08:14.699Z,28.77
2022-12-05T02:15:13.559Z,28.77
2022-12-05T02:22:50.405Z,32.72
2022-12-05T02:29:57.996Z,30.93
2022-12-05T02:36:48.950Z,29.40
2022-12-05T02:43:40.110Z,29.45
2022-12-05T02:50:35.534Z,32.85
2022-12-05T02:57:22.688Z,32.63
2022-12-05T03:04:09.886Z,31.05
2022-12-05T03:11:00.030Z,29.75
2022-12-05T03:17:54.435Z,30.13
2022-12-05T03:24:44.061Z,29.83
2022-12-05T03:31:43.501Z,29.52
2022-12-05T03:38:35.639Z,33.97
2022-12-05T04:06:14.022Z,37.38
2022-12-05T04:13:17.937Z,39.00
2022-12-05T04:20:21.043Z,41.03
2022-12-05T04:27:25.907Z,42.38
2022-12-05T04:34:15.749Z,40.45
2022-12-05T04:41:06.338Z,44.45
2022-12-05T04:47:58.718Z,45.15
2022-12-05T04:54:49.251Z,47.70
2022-12-05T05:01:40.613Z,43.72
2022-12-05T05:08:30.824Z,46.13
2022-12-05T05:15:16.403Z,50.45
2022-12-05T05:22:01.920Z,49.75
2022-12-05T05:28:50.544Z,49.83
2022-12-05T05:35:39.722Z,53.35
2022-12-05T05:42:25.300Z,58.55
2022-12-05T05:49:14.192Z,47.33
2022-12-05T05:55:59.699Z,55.88
2022-12-05T06:02:45.436Z,51.83
2022-12-05T06:09:33.514Z,61.00
2022-12-05T06:16:23.792Z,48.45
2022-12-05T06:23:09.298Z,52.60
2022-12-05T06:29:57.482Z,62.53
2022-12-05T06:36:43.086Z,52.60
2022-12-05T06:43:28.581Z,49.33
2022-12-05T06:50:16.639Z,47.83
2022-12-05T06:57:02.155Z,56.60
2022-12-05T07:03:48.914Z,51.95
2022-12-05T07:10:37.096Z,53.65
2022-12-05T07:17:23.503Z,55.85
2022-12-05T07:24:09.597Z,51.95
2022-12-05T07:31:06.536Z,49.37
2022-12-05T07:37:51.962Z,51.45
2022-12-05T07:44:37.648Z,48.30
2022-12-05T07:51:25.649Z,50.75
2022-12-05T07:58:11.077Z,44.03
2022-12-05T08:04:56.435Z,43.67
2022-12-05T08:11:48.292Z,42.05
2022-12-05T08:18:36.700Z,41.55
2022-12-05T08:25:22.242Z,42.88
2022-12-05T08:32:10.269Z,43.42
2022-12-05T08:39:00.400Z,45.13
2022-12-05T08:45:53.643Z,41.10
2022-12-05T08:52:41.652Z,51.63
2022-12-05T08:59:27.104Z,43.63
2022-12-05T09:06:15.790Z,51.78
2022-12-05T09:13:03.877Z,53.50
2022-12-05T09:19:49.499Z,54.08
2022-12-05T09:26:34.992Z,53.60
2022-12-05T09:33:23.200Z,49.42
2022-12-05T09:40:12.984Z,45.35
2022-12-05T09:47:02.831Z,46.85
2022-12-05T09:53:51.123Z,40.35
2022-12-05T10:00:37.472Z,42.78
2022-12-05T10:07:30.273Z,38.92
2022-12-05T10:14:34.171Z,45.78
2022-12-05T10:21:25.860Z,40.30
2022-12-05T10:28:26.753Z,38.40
2022-12-05T10:35:24.251Z,43.13
2022-12-05T10:42:12.603Z,41.80
2022-12-05T10:48:58.517Z,45.35
2022-12-05T10:56:28.140Z,46.23
2022-12-05T11:02:56.545Z,37.97
2022-12-05T11:09:42.484Z,49.20
2022-12-05T11:16:35.568Z,43.88
2022-12-05T11:23:29.918Z,41.08
2022-12-05T11:30:23.005Z,43.30
2022-12-05T11:37:17.721Z,36.95
2022-12-05T11:44:39.833Z,37.90
2022-12-05T11:51:40.468Z,36.13
2022-12-05T11:58:59.713Z,40.75
2022-12-05T12:05:57.519Z,33.25
2022-12-05T12:12:58.362Z,37.90
2022-12-05T12:20:10.571Z,36.78
2022-12-05T12:27:08.547Z,34.17
2022-12-05T12:34:02.465Z,30.92
2022-12-05T12:40:54.356Z,38.83
2022-12-05T12:47:53.870Z,40.45
2022-12-05T12:55:04.310Z,33.47
2022-12-05T13:01:58.712Z,32.63
2022-12-05T13:08:51.683Z,39.15
2022-12-05T13:15:41.688Z,30.38
2022-12-05T13:22:32.138Z,31.08
2022-12-05T13:29:25.397Z,31.10
2022-12-05T13:36:27.688Z,30.75
2022-12-05T13:43:19.330Z,28.75
2022-12-05T13:50:13.268Z,29.15
2022-12-05T13:57:02.758Z,30.30
2022-12-05T14:04:03.599Z,23.63
2022-12-05T14:11:14.155Z,25.23
2022-12-05T14:18:08.279Z,28.48
2022-12-05T14:25:06.729Z,27.73
2022-12-05T14:32:13.835Z,30.45
2022-12-05T14:38:59.500Z,25.15
2022-12-05T14:46:02.339Z,30.27
2022-12-05T14:52:48.770Z,24.15
2022-12-05T14:59:42.172Z,31.02
2022-12-05T15:06:30.669Z,28.35
2022-12-05T15:13:20.571Z,27.30
2022-12-05T15:20:11.401Z,29.85
2022-12-05T15:27:01.710Z,26.85
2022-12-05T15:33:54.861Z,26.98
2022-12-05T15:40:40.659Z,24.88
2022-12-05T15:47:29.845Z,22.20
2022-12-05T15:54:22.616Z,18.60
2022-12-05T16:01:19.199Z,19.63
2022-12-05T16:08:08.710Z,18.27
2022-12-05T16:15:00.075Z,13.68
2022-12-05T16:21:50.909Z,13.02
2022-12-05T16:28:39.260Z,11.30
2022-12-05T16:35:42.578Z,11.57
2022-12-05T16:42:29.596Z,10.38
2022-12-05T16:56:34.961Z,8.75
2022-12-05T17:03:36.456Z,9.10
2022-12-05T17:10:25.808Z,9.20
2022-12-05T17:17:18.105Z,9.10
2022-12-05T17:24:04.268Z,8.50
2022-12-05T17:30:52.823Z,8.33
2022-12-05T17:37:38.300Z,7.43
2022-12-05T17:44:23.703Z,7.90
2022-12-05T17:51:14.596Z,7.93
2022-12-05T17:58:00.263Z,8.00
2022-12-05T18:04:45.922Z,8.50
2022-12-05T18:11:34.059Z,8.10
2022-12-05T18:18:21.611Z,8.02
2022-12-05T18:25:08.788Z,8.38
2022-12-05T18:31:56.937Z,8.68
2022-12-05T18:38:43.387Z,47.13
2022-12-05T18:45:29.070Z,9.07
2022-12-05T18:52:17.156Z,9.10
2022-12-05T18:59:05.598Z,8.85
2022-12-05T19:05:50.968Z,9.50
2022-12-05T19:12:39.338Z,9.30
2022-12-05T19:19:25.698Z,9.10
2022-12-05T19:26:13.400Z,10.15
2022-12-05T19:33:01.985Z,9.93
2022-12-05T19:39:48.133Z,10.50
2022-12-05T19:46:34.598Z,10.38
2022-12-05T19:53:22.580Z,10.07
2022-12-05T20:00:11.491Z,9.60
2022-12-05T20:06:59.929Z,9.82
2022-12-05T20:13:48.801Z,10.30
2022-12-05T20:20:34.245Z,10.25
2022-12-05T20:27:19.674Z,9.98
2022-12-05T20:34:08.420Z,10.10
2022-12-05T20:40:53.877Z,9.50
2022-12-05T20:47:39.516Z,10.25
2022-12-05T20:54:27.794Z,10.23
2022-12-05T21:01:16.372Z,9.98
2022-12-05T21:08:01.917Z,9.82
2022-12-05T21:14:50.791Z,9.90
2022-12-05T21:21:36.318Z,9.63
2022-12-05T21:28:21.906Z,9.27
2022-12-05T21:35:11.413Z,9.10
2022-12-05T21:41:58.204Z,9.98
2022-12-05T21:48:43.577Z,9.57
2022-12-05T21:55:31.478Z,8.93
2022-12-05T22:02:17.069Z,9.55
2022-12-05T22:09:02.795Z,9.38
2022-12-05T22:15:51.274Z,9.20
2022-12-05T22:22:38.955Z,9.07
2022-12-05T22:29:24.378Z,8.20
2022-12-05T22:36:15.166Z,8.95
2022-12-05T22:43:00.575Z,8.95
2022-12-05T22:49:46.250Z,9.10
2022-12-05T22:56:34.743Z,9.20
2022-12-05T23:03:20.288Z,8.90
2022-12-05T23:10:07.203Z,9.60
2022-12-05T23:23:40.902Z,9.07
2022-12-05T23:30:26.375Z,9.30
2022-12-05T23:37:14.364Z,9.02
2022-12-05T23:44:02.024Z,9.25
2022-12-05T23:50:47.376Z,9.45
2022-12-05T23:57:35.681Z,9.50
